createdAt,value
2023-04-27T00:01:43.453Z,3.13
2023-04-27T00:04:10.485Z,4.50
2023-04-27T00:06:37.642Z,3.57
2023-04-27T00:09:04.722Z,7.83
2023-04-27T00:11:31.847Z,3.80
2023-04-27T00:13:59.208Z,5.00
2023-04-27T00:16:26.644Z,5.47
2023-04-27T00:18:54.045Z,5.27
2023-04-27T00:21:21.289Z,3.37
2023-04-27T00:23:48.166Z,5.73
2023-04-27T00:26:15.116Z,5.77
2023-04-27T00:28:44.393Z,4.80
2023-04-27T00:31:11.378Z,4.27
2023-04-27T00:33:38.503Z,4.20
2023-04-27T00:36:05.790Z,5.27
2023-04-27T00:38:32.728Z,6.13
2023-04-27T00:41:03.854Z,6.13
2023-04-27T00:43:31.475Z,5.43
2023-04-27T00:45:59.439Z,5.27
2023-04-27T00:48:26.881Z,6.90
2023-04-27T00:50:54.406Z,5.77
2023-04-27T00:53:21.678Z,4.03
2023-04-27T00:55:49.759Z,5.70
2023-04-27T00:58:16.696Z,5.07
2023-04-27T01:00:43.883Z,5.97
2023-04-27T01:03:11.496Z,6.77
2023-04-27T01:05:39.509Z,3.87
2023-04-27T01:08:08.104Z,4.10
2023-04-27T01:10:35.514Z,3.90
2023-04-27T01:13:02.573Z,8.20
2023-04-27T01:15:31.904Z,6.37
2023-04-27T01:18:02.899Z,5.20
2023-04-27T01:20:32.684Z,7.07
2023-04-27T01:22:59.908Z,4.10
2023-04-27T01:25:27.132Z,6.07
2023-04-27T01:27:55.082Z,5.80
2023-04-27T01:30:25.093Z,3.70
2023-04-27T01:32:52.050Z,4.73
2023-04-27T01:35:19.941Z,4.07
2023-04-27T01:37:46.917Z,4.73
2023-04-27T01:40:14.244Z,5.37
2023-04-27T01:42:41.340Z,4.90
2023-04-27T01:45:09.549Z,5.80
2023-04-27T01:47:36.486Z,3.50
2023-04-27T01:50:04.075Z,5.73
2023-04-27T01:52:31.717Z,4.20
2023-04-27T01:54:58.678Z,4.30
2023-04-27T01:57:26.798Z,5.53
2023-04-27T01:59:55.512Z,4.40
2023-04-27T02:02:22.434Z,5.47
2023-04-27T02:04:49.626Z,5.77
2023-04-27T02:07:16.624Z,5.00
2023-04-27T02:09:44.081Z,6.10
2023-04-27T02:12:13.642Z,7.13
2023-04-27T02:14:40.661Z,5.83
2023-04-27T02:17:07.496Z,5.63
2023-04-27T02:19:34.750Z,8.17
2023-04-27T02:22:01.756Z,5.40
2023-04-27T02:24:28.720Z,7.17
2023-04-27T02:26:55.719Z,6.77
2023-04-27T02:29:22.656Z,6.93
2023-04-27T02:31:49.992Z,6.63
2023-04-27T02:34:17.175Z,9.27
2023-04-27T02:36:44.065Z,4.83
2023-04-27T02:39:11.231Z,6.00
2023-04-27T02:41:38.799Z,7.30
2023-04-27T02:44:05.960Z,7.40
2023-04-27T02:46:32.922Z,6.83
2023-04-27T02:49:00.157Z,7.57
2023-04-27T02:51:27.669Z,8.57
2023-04-27T02:53:54.769Z,6.60
2023-04-27T02:56:21.837Z,8.60
2023-04-27T02:58:49.032Z,5.80
2023-04-27T03:01:17.462Z,7.73
2023-04-27T03:03:48.147Z,7.27
2023-04-27T03:06:15.560Z,9.67
2023-04-27T03:08:42.563Z,10.47
2023-04-27T03:11:09.757Z,5.43
2023-04-27T03:13:41.958Z,6.07
2023-04-27T03:16:12.192Z,5.33
2023-04-27T03:18:39.988Z,5.17
2023-04-27T03:21:06.934Z,4.93
2023-04-27T03:23:34.358Z,5.60
2023-04-27T03:26:05.751Z,4.13
2023-04-27T03:28:32.745Z,5.17
2023-04-27T03:31:00.226Z,4.70
2023-04-27T03:33:28.329Z,6.53
2023-04-27T03:35:56.971Z,4.80
2023-04-27T03:38:27.573Z,5.63
2023-04-27T03:40:54.930Z,8.77
2023-04-27T03:43:22.316Z,6.13
2023-04-27T03:45:49.547Z,8.60
2023-04-27T03:48:17.361Z,12.13
2023-04-27T03:50:46.605Z,8.37
2023-04-27T03:53:14.876Z,6.73
2023-04-27T03:55:42.908Z,11.17
2023-04-27T03:58:11.170Z,8.37
2023-04-27T04:00:46.344Z,6.20
2023-04-27T04:03:14.214Z,7.30
2023-04-27T04:05:41.373Z,8.30
2023-04-27T04:08:08.405Z,9.87
2023-04-27T04:10:35.246Z,8.60
2023-04-27T04:13:02.400Z,7.13
2023-04-27T04:15:29.502Z,8.80
2023-04-27T04:17:56.647Z,10.47
2023-04-27T04:20:23.801Z,8.30
2023-04-27T04:22:50.879Z,8.23
2023-04-27T04:25:17.978Z,7.70
2023-04-27T04:27:44.991Z,6.67
2023-04-27T04:30:12.746Z,6.87
2023-04-27T04:32:40.497Z,7.10
2023-04-27T04:35:07.940Z,8.17
2023-04-27T04:37:35.634Z,7.70
2023-04-27T04:40:10.853Z,5.00
2023-04-27T04:42:39.162Z,5.10
2023-04-27T04:45:08.696Z,5.97
2023-04-27T04:47:36.680Z,6.10
2023-04-27T04:50:04.109Z,8.80
2023-04-27T04:52:31.511Z,6.70
2023-04-27T04:54:58.806Z,5.93
2023-04-27T04:57:26.803Z,5.00
2023-04-27T04:59:53.745Z,6.00
2023-04-27T05:02:20.953Z,5.77
2023-04-27T05:04:48.910Z,5.73
2023-04-27T05:07:20.906Z,8.87
2023-04-27T05:09:50.624Z,6.43
2023-04-27T05:12:17.500Z,5.77
2023-04-27T05:14:44.545Z,6.23
2023-04-27T05:17:11.445Z,8.03
2023-04-27T05:19:38.380Z,6.67
2023-04-27T05:22:05.342Z,5.93
2023-04-27T05:24:33.156Z,6.83
2023-04-27T05:27:02.179Z,6.80
2023-04-27T05:29:29.478Z,5.57
2023-04-27T05:31:56.456Z,7.53
2023-04-27T05:34:23.661Z,10.03
2023-04-27T05:36:50.519Z,12.10
2023-04-27T05:39:17.553Z,6.53
2023-04-27T05:41:44.405Z,8.00
2023-04-27T05:44:11.316Z,6.47
2023-04-27T05:46:38.843Z,6.73
2023-04-27T05:49:06.078Z,6.80
2023-04-27T05:51:33.532Z,10.00
2023-04-27T05:54:02.047Z,8.33
2023-04-27T05:56:29.155Z,11.23
2023-04-27T05:58:56.133Z,8.70
2023-04-27T06:01:23.578Z,8.20
2023-04-27T06:03:50.836Z,7.17
2023-04-27T06:06:18.212Z,9.33
2023-04-27T06:08:45.272Z,9.97
2023-04-27T06:11:12.192Z,7.03
2023-04-27T06:13:39.128Z,7.40
2023-04-27T06:16:06.388Z,9.63
2023-04-27T06:18:33.427Z,6.80
2023-04-27T06:21:01.913Z,7.80
2023-04-27T06:23:29.315Z,6.93
2023-04-27T06:25:56.417Z,8.50
2023-04-27T06:28:23.477Z,7.07
2023-04-27T06:30:50.598Z,9.80
2023-04-27T06:33:17.590Z,7.67
2023-04-27T06:35:47.247Z,8.27
2023-04-27T06:38:14.641Z,9.17
2023-04-27T06:40:41.783Z,7.30
2023-04-27T06:43:08.903Z,7.43
2023-04-27T06:45:36.237Z,7.47
2023-04-27T06:48:03.488Z,6.97
2023-04-27T06:50:30.774Z,6.47
2023-04-27T06:52:57.921Z,7.83
2023-04-27T06:55:24.966Z,6.60
2023-04-27T06:57:51.916Z,7.83
2023-04-27T07:00:19.919Z,8.47
2023-04-27T07:02:47.106Z,6.93
2023-04-27T07:05:14.265Z,10.23
2023-04-27T07:07:41.512Z,6.27
2023-04-27T07:10:09.180Z,6.70
2023-04-27T07:12:37.051Z,6.30
2023-04-27T07:15:06.549Z,6.43
2023-04-27T07:17:33.827Z,5.97
2023-04-27T07:20:06.220Z,5.97
2023-04-27T07:22:33.819Z,6.03
2023-04-27T07:25:00.735Z,6.80
2023-04-27T07:27:27.776Z,7.77
2023-04-27T07:29:54.918Z,6.00
2023-04-27T07:32:22.632Z,5.27
2023-04-27T07:34:53.953Z,6.83
2023-04-27T07:37:22.540Z,8.50
2023-04-27T07:39:53.114Z,6.30
2023-04-27T07:42:22.546Z,8.37
2023-04-27T07:44:50.396Z,5.83
2023-04-27T07:47:20.396Z,5.10
2023-04-27T07:49:48.103Z,5.00
2023-04-27T07:52:15.917Z,4.27
2023-04-27T07:54:43.243Z,3.30
2023-04-27T07:57:11.791Z,5.63
2023-04-27T07:59:39.049Z,3.30
2023-04-27T08:02:18.584Z,3.13
2023-04-27T08:04:48.213Z,3.70
2023-04-27T08:07:19.069Z,3.77
2023-04-27T08:09:46.658Z,3.20
2023-04-27T08:12:13.662Z,4.07
2023-04-27T08:14:40.804Z,4.77
2023-04-27T08:17:07.822Z,3.43
2023-04-27T08:19:34.902Z,3.83
2023-04-27T08:22:01.751Z,4.87
2023-04-27T08:24:28.805Z,3.27
2023-04-27T08:26:55.706Z,3.30
2023-04-27T08:29:27.661Z,3.93
2023-04-27T08:31:59.037Z,5.07
2023-04-27T08:34:26.797Z,3.43
2023-04-27T08:36:56.967Z,3.50
2023-04-27T08:39:25.109Z,4.70
2023-04-27T08:41:52.463Z,7.00
2023-04-27T08:44:19.557Z,3.40
2023-04-27T08:46:47.117Z,2.63
2023-04-27T08:49:16.556Z,3.30
2023-04-27T08:51:44.038Z,4.37
2023-04-27T08:54:11.115Z,3.80
2023-04-27T08:56:38.491Z,3.63
2023-04-27T08:59:17.780Z,2.50
2023-04-27T09:01:49.121Z,4.73
2023-04-27T09:04:17.726Z,2.60
2023-04-27T09:06:45.028Z,2.30
2023-04-27T09:09:22.359Z,2.70
2023-04-27T09:11:50.029Z,2.30
2023-04-27T09:14:22.386Z,4.00
2023-04-27T09:17:00.080Z,2.23
2023-04-27T09:19:28.941Z,3.40
2023-04-27T09:22:15.570Z,3.20
2023-04-27T09:24:52.870Z,2.97
2023-04-27T09:27:21.848Z,2.00
2023-04-27T09:30:13.999Z,2.03
2023-04-27T09:36:25.872Z,2.47
2023-04-27T09:38:53.625Z,3.60
2023-04-27T09:41:20.670Z,3.07
2023-04-27T09:43:47.779Z,3.00
2023-04-27T09:46:15.193Z,2.47
2023-04-27T09:48:42.870Z,1.80
2023-04-27T09:52:00.924Z,2.13
2023-04-27T09:54:32.348Z,1.73
2023-04-27T09:57:14.084Z,3.00
2023-04-27T09:59:46.773Z,3.00
2023-04-27T10:02:24.747Z,4.07
2023-04-27T10:05:30.257Z,1.87
2023-04-27T10:07:57.648Z,3.77
2023-04-27T10:10:24.574Z,4.07
2023-04-27T10:13:03.997Z,1.77
2023-04-27T10:15:31.011Z,1.97
2023-04-27T10:18:04.953Z,1.47
2023-04-27T10:20:36.606Z,3.50
2023-04-27T10:23:04.076Z,1.37
2023-04-27T10:25:40.522Z,1.40
2023-04-27T10:28:10.820Z,0.83
2023-04-27T10:30:39.283Z,1.87
2023-04-27T10:33:10.990Z,2.00
2023-04-27T10:35:40.120Z,0.80
2023-04-27T10:38:21.982Z,1.67
2023-04-27T10:41:03.332Z,3.40
2023-04-27T10:43:33.210Z,1.57
2023-04-27T10:46:15.870Z,1.93
2023-04-27T10:48:44.205Z,2.37
2023-04-27T10:51:16.084Z,1.00
2023-04-27T10:53:43.077Z,1.40
2023-04-27T10:56:11.144Z,1.23
2023-04-27T10:58:48.228Z,1.23
2023-04-27T11:01:29.874Z,2.13
2023-04-27T11:03:57.981Z,2.30
2023-04-27T11:06:25.018Z,2.50
2023-04-27T11:08:52.213Z,1.00
2023-04-27T11:11:19.916Z,1.00
2023-04-27T11:13:49.530Z,2.87
2023-04-27T11:16:16.845Z,0.90
2023-04-27T11:18:43.917Z,1.93
2023-04-27T11:21:20.340Z,2.13
2023-04-27T11:23:47.911Z,1.67
2023-04-27T11:26:20.189Z,1.53
2023-04-27T11:28:59.410Z,2.53
2023-04-27T11:31:39.795Z,2.73
2023-04-27T11:34:08.227Z,1.57
2023-04-27T11:36:36.121Z,1.43
2023-04-27T11:39:06.446Z,0.77
2023-04-27T11:41:37.555Z,1.03
2023-04-27T11:44:09.039Z,2.33
2023-04-27T11:46:38.127Z,1.77
2023-04-27T11:49:06.632Z,0.60
2023-04-27T11:51:33.994Z,3.27
2023-04-27T11:54:08.006Z,1.03
2023-04-27T11:56:43.000Z,2.33
2023-04-27T11:59:27.622Z,1.97
2023-04-27T12:01:54.700Z,0.60
2023-04-27T12:04:22.200Z,0.97
2023-04-27T12:06:49.323Z,3.10
2023-04-27T12:09:17.439Z,0.50
2023-04-27T12:11:44.698Z,1.93
2023-04-27T12:14:11.739Z,3.80
2023-04-27T12:16:38.858Z,0.87
2023-04-27T12:19:06.554Z,0.70
2023-04-27T12:21:34.071Z,1.33
2023-04-27T12:24:01.045Z,0.40
2023-04-27T12:26:29.193Z,3.13
2023-04-27T12:28:56.244Z,1.50
2023-04-27T12:31:27.709Z,2.40
2023-04-27T12:33:54.939Z,1.30
2023-04-27T12:36:21.984Z,1.73
2023-04-27T12:38:48.896Z,1.00
2023-04-27T12:41:15.931Z,0.90
2023-04-27T12:43:43.705Z,1.20
2023-04-27T12:46:11.534Z,3.77
2023-04-27T12:48:38.640Z,1.17
2023-04-27T12:51:06.917Z,0.53
2023-04-27T12:53:33.814Z,0.70
2023-04-27T12:56:02.493Z,0.70
2023-04-27T12:58:29.462Z,1.20
2023-04-27T13:01:00.330Z,0.97
2023-04-27T13:03:27.374Z,0.87
2023-04-27T13:05:54.381Z,0.70
2023-04-27T13:08:21.427Z,5.10
2023-04-27T13:10:48.361Z,3.13
2023-04-27T13:13:15.631Z,0.70
2023-04-27T13:15:42.558Z,1.17
2023-04-27T13:18:10.442Z,0.60
2023-04-27T13:20:37.987Z,2.47
2023-04-27T13:23:05.920Z,1.57
2023-04-27T13:25:32.802Z,2.53
2023-04-27T13:27:59.738Z,2.13
2023-04-27T13:30:26.672Z,2.30
2023-04-27T13:32:53.866Z,2.13
2023-04-27T13:35:21.052Z,1.47
2023-04-27T13:37:48.702Z,1.80
2023-04-27T13:40:15.737Z,1.27
2023-04-27T13:42:42.707Z,3.47
2023-04-27T13:45:10.369Z,3.03
2023-04-27T13:47:37.521Z,0.63
2023-04-27T13:50:09.208Z,1.50
2023-04-27T13:52:37.792Z,1.27
2023-04-27T13:55:06.694Z,2.10
2023-04-27T13:57:33.867Z,3.40
2023-04-27T14:00:01.185Z,1.37
2023-04-27T14:02:29.366Z,0.60
2023-04-27T14:04:56.852Z,1.47
2023-04-27T14:07:24.244Z,2.13
2023-04-27T14:09:51.140Z,1.30
2023-04-27T14:12:18.120Z,1.03
2023-04-27T14:14:44.960Z,0.63
2023-04-27T14:17:11.969Z,2.93
2023-04-27T14:19:38.839Z,1.70
2023-04-27T14:22:06.435Z,1.23
2023-04-27T14:24:33.303Z,1.67
2023-04-27T14:27:00.335Z,1.30
2023-04-27T14:29:27.218Z,1.80
2023-04-27T14:31:54.921Z,1.90
2023-04-27T14:34:21.957Z,0.87
2023-04-27T14:36:48.928Z,0.93
2023-04-27T14:39:16.026Z,0.83
2023-04-27T14:41:43.167Z,0.93
2023-04-27T14:44:10.135Z,3.03
2023-04-27T14:46:37.257Z,3.27
2023-04-27T14:49:04.570Z,1.00
2023-04-27T14:51:32.528Z,2.10
2023-04-27T14:53:59.498Z,0.70
2023-04-27T14:56:26.516Z,0.70
2023-04-27T14:58:55.143Z,0.60
2023-04-27T15:01:22.499Z,1.60
2023-04-27T15:03:51.165Z,0.60
2023-04-27T15:06:18.442Z,0.60
2023-04-27T15:08:45.751Z,1.13
2023-04-27T15:11:12.707Z,0.70
2023-04-27T15:13:39.625Z,2.10
2023-04-27T15:16:07.291Z,1.80
2023-04-27T15:18:35.377Z,1.10
2023-04-27T15:21:02.310Z,3.93
2023-04-27T15:23:29.250Z,3.03
2023-04-27T15:25:58.140Z,1.13
2023-04-27T15:28:25.194Z,2.20
2023-04-27T15:30:52.275Z,0.70
2023-04-27T15:33:19.691Z,1.77
2023-04-27T15:35:46.657Z,1.77
2023-04-27T15:38:14.692Z,1.80
2023-04-27T15:40:41.737Z,0.70
2023-04-27T15:43:08.627Z,1.63
2023-04-27T15:45:35.848Z,0.80
2023-04-27T15:48:02.835Z,1.50
2023-04-27T15:50:29.854Z,2.60
2023-04-27T15:52:56.771Z,0.93
2023-04-27T15:55:23.888Z,1.37
2023-04-27T15:57:50.761Z,2.67
2023-04-27T16:00:19.036Z,3.40
2023-04-27T16:02:46.785Z,2.50
2023-04-27T16:05:14.628Z,2.70
2023-04-27T16:07:43.243Z,1.63
2023-04-27T16:10:11.516Z,0.90
2023-04-27T16:12:39.014Z,2.77
2023-04-27T16:15:08.570Z,1.93
2023-04-27T16:17:37.483Z,2.33
2023-04-27T16:20:08.049Z,4.73
2023-04-27T16:22:36.120Z,1.07
2023-04-27T16:25:04.070Z,2.50
2023-04-27T16:27:31.669Z,1.07
2023-04-27T16:29:58.616Z,1.50
2023-04-27T16:32:26.794Z,3.23
2023-04-27T16:34:53.949Z,4.07
2023-04-27T16:37:21.048Z,3.07
2023-04-27T16:39:48.272Z,2.50
2023-04-27T16:42:19.999Z,1.23
2023-04-27T16:44:47.433Z,4.00
2023-04-27T16:47:14.637Z,3.20
2023-04-27T16:49:43.757Z,2.40
2023-04-27T16:52:11.322Z,1.57
2023-04-27T16:54:38.271Z,1.27
2023-04-27T16:57:05.192Z,1.57
2023-04-27T16:59:32.520Z,1.23
2023-04-27T17:02:06.294Z,1.47
2023-04-27T17:04:43.855Z,2.60
2023-04-27T17:07:11.365Z,0.63
2023-04-27T17:09:38.574Z,1.90
2023-04-27T17:12:11.145Z,0.70
2023-04-27T17:14:39.304Z,0.53
2023-04-27T17:17:06.668Z,2.20
2023-04-27T17:19:33.580Z,3.07
2023-04-27T17:22:00.770Z,3.90
2023-04-27T17:24:28.134Z,3.33
2023-04-27T17:26:55.074Z,3.60
2023-04-27T17:29:22.096Z,4.23
2023-04-27T17:31:50.465Z,0.93
2023-04-27T17:34:17.818Z,4.70
2023-04-27T17:36:45.685Z,1.00
2023-04-27T17:39:13.760Z,0.63
2023-04-27T17:41:41.790Z,1.27
2023-04-27T17:44:08.904Z,1.53
2023-04-27T17:46:37.912Z,1.33
2023-04-27T17:49:04.867Z,7.73
2023-04-27T17:51:33.450Z,3.00
2023-04-27T17:54:00.494Z,3.00
2023-04-27T17:56:27.385Z,2.80
2023-04-27T17:58:54.326Z,1.30
2023-04-27T18:01:21.280Z,0.80
2023-04-27T18:03:49.869Z,5.60
2023-04-27T18:06:19.314Z,0.80
2023-04-27T18:08:46.213Z,4.30
2023-04-27T18:11:13.388Z,4.07
2023-04-27T18:13:41.032Z,2.57
2023-04-27T18:16:08.046Z,6.63
2023-04-27T18:18:35.157Z,0.77
2023-04-27T18:21:02.120Z,2.70
2023-04-27T18:23:29.078Z,2.20
2023-04-27T18:26:00.026Z,0.80
2023-04-27T18:28:27.262Z,1.53
2023-04-27T18:30:54.170Z,2.23
2023-04-27T18:33:21.332Z,2.53
2023-04-27T18:35:48.528Z,4.60
2023-04-27T18:38:15.584Z,0.87
2023-04-27T18:40:42.528Z,2.10
2023-04-27T18:43:09.808Z,1.47
2023-04-27T18:45:36.880Z,1.50
2023-04-27T18:48:04.008Z,1.60
2023-04-27T18:50:31.050Z,2.33
2023-04-27T18:52:59.488Z,3.00
2023-04-27T18:55:26.739Z,2.47
2023-04-27T18:57:53.697Z,4.33
2023-04-27T19:00:20.776Z,3.13
2023-04-27T19:02:47.922Z,5.67
2023-04-27T19:05:16.036Z,2.87
2023-04-27T19:07:43.046Z,2.63
2023-04-27T19:10:11.411Z,3.07
2023-04-27T19:12:38.677Z,4.03
2023-04-27T19:15:06.039Z,3.47
2023-04-27T19:17:33.194Z,3.37
2023-04-27T19:20:00.631Z,2.53
2023-04-27T19:22:29.332Z,3.03
2023-04-27T19:24:56.382Z,9.83
2023-04-27T19:27:23.357Z,2.30
2023-04-27T19:29:55.048Z,2.27
2023-04-27T19:32:25.464Z,3.23
2023-04-27T19:34:52.849Z,1.50
2023-04-27T19:37:19.781Z,4.50
2023-04-27T19:39:47.018Z,2.10
2023-04-27T19:42:15.329Z,4.20
2023-04-27T19:44:42.255Z,1.93
2023-04-27T19:47:12.028Z,1.70
2023-04-27T19:49:39.334Z,2.97
2023-04-27T19:52:07.548Z,2.30
2023-04-27T19:54:38.822Z,5.67
2023-04-27T19:57:06.146Z,2.30
2023-04-27T19:59:33.138Z,2.53
2023-04-27T20:02:00.277Z,3.47
2023-04-27T20:04:27.512Z,2.03
2023-04-27T20:06:54.555Z,3.83
2023-04-27T20:09:21.542Z,3.47
2023-04-27T20:11:48.562Z,3.03
2023-04-27T20:14:15.681Z,2.90
2023-04-27T20:16:42.895Z,2.70
2023-04-27T20:19:10.856Z,3.53
2023-04-27T20:21:38.259Z,3.13
2023-04-27T20:24:05.463Z,3.50
2023-04-27T20:26:32.420Z,2.90
2023-04-27T20:28:59.342Z,4.00
2023-04-27T20:31:26.345Z,3.93
2023-04-27T20:33:54.421Z,4.27
2023-04-27T20:36:23.242Z,3.37
2023-04-27T20:38:50.223Z,2.93
2023-04-27T20:41:17.442Z,3.83
2023-04-27T20:43:45.580Z,4.63
2023-04-27T20:46:12.916Z,5.70
2023-04-27T20:48:39.941Z,4.43
2023-04-27T20:51:07.025Z,4.23
2023-04-27T20:53:34.005Z,3.83
2023-04-27T20:56:00.934Z,4.00
2023-04-27T20:58:27.869Z,4.73
2023-04-27T21:00:54.878Z,3.73
2023-04-27T21:03:22.026Z,3.97
2023-04-27T21:05:49.425Z,4.13
2023-04-27T21:08:17.315Z,4.97
2023-04-27T21:10:44.622Z,5.23
2023-04-27T21:13:11.579Z,5.93
2023-04-27T21:15:38.927Z,7.20
2023-04-27T21:18:07.823Z,6.37
2023-04-27T21:20:36.505Z,7.57
2023-04-27T21:23:03.587Z,5.57
2023-04-27T21:25:30.551Z,4.93
2023-04-27T21:27:57.484Z,7.63
2023-04-27T21:30:24.848Z,5.13
2023-04-27T21:32:51.810Z,5.07
2023-04-27T21:35:18.869Z,5.27
2023-04-27T21:37:46.033Z,6.13
2023-04-27T21:40:13.192Z,5.17
2023-04-27T21:42:40.104Z,6.77
2023-04-27T21:45:07.772Z,7.03
2023-04-27T21:47:34.845Z,5.70
2023-04-27T21:50:01.824Z,5.63
2023-04-27T21:52:28.695Z,7.13
2023-04-27T21:54:56.225Z,6.70
2023-04-27T21:57:23.067Z,7.43
2023-04-27T21:59:49.977Z,7.40
2023-04-27T22:02:17.098Z,6.47
2023-04-27T22:04:44.546Z,6.30
2023-04-27T22:07:12.145Z,7.90
2023-04-27T22:09:39.090Z,7.67
2023-04-27T22:12:06.536Z,7.03
2023-04-27T22:14:33.683Z,7.70
2023-04-27T22:17:01.034Z,7.83
2023-04-27T22:19:28.750Z,8.77
2023-04-27T22:21:56.099Z,7.03
2023-04-27T22:24:23.224Z,6.80
2023-04-27T22:26:50.123Z,9.10
2023-04-27T22:29:17.240Z,7.70
2023-04-27T22:31:45.002Z,9.87
2023-04-27T22:34:15.347Z,8.40
2023-04-27T22:36:42.650Z,10.23
2023-04-27T22:39:09.631Z,11.27
2023-04-27T22:41:36.712Z,9.63
2023-04-27T22:44:03.810Z,10.87
2023-04-27T22:46:30.855Z,11.43
2023-04-27T22:48:58.672Z,12.30
2023-04-27T22:51:27.331Z,10.67
2023-04-27T22:53:54.890Z,9.97
2023-04-27T22:56:22.517Z,9.37
2023-04-27T22:58:49.740Z,10.83
2023-04-27T23:01:16.818Z,11.20
2023-04-27T23:03:44.019Z,10.13
2023-04-27T23:06:17.062Z,10.33
2023-04-27T23:08:47.118Z,12.43
2023-04-27T23:11:15.479Z,11.47
2023-04-27T23:13:42.637Z,10.03
2023-04-27T23:16:10.007Z,9.23
2023-04-27T23:18:37.239Z,10.13
2023-04-27T23:21:04.343Z,9.60
2023-04-27T23:23:31.316Z,10.03
2023-04-27T23:25:58.255Z,9.37
2023-04-27T23:28:25.250Z,12.17
2023-04-27T23:30:53.927Z,8.63
2023-04-27T23:33:21.710Z,10.07
2023-04-27T23:35:48.764Z,10.53
2023-04-27T23:38:15.858Z,8.87
2023-04-27T23:40:42.703Z,9.47
2023-04-27T23:43:09.635Z,11.97
2023-04-27T23:45:36.827Z,8.70
2023-04-27T23:48:03.964Z,9.97
2023-04-27T23:50:30.965Z,9.73
2023-04-27T23:52:57.957Z,8.73
2023-04-27T23:55:24.896Z,8.47
2023-04-27T23:57:54.926Z,13.37
